Time;durP1;ratioP1;P1;durP2;ratioP2;P2;SDS_P1;SDS_P2;PMS_P1;PMS_P2;Temp;Humidity;BMP_temperature;BMP_pressure;BME280_temperature;BME280_humidity;BME280_pressure;Samples;Min_cycle;Max_cycle;Signal;HPM_P1;HPM_P2
2021/05/10 00:00:48;;;;;;;3.13;1.90;;;21.20;99.90;;;;;;5062398;28;20040;-74
2021/05/10 00:03:13;;;;;;;8.13;2.25;;;21.20;99.90;;;;;;5058456;28;20048;-75
2021/05/10 00:05:39;;;;;;;4.88;2.20;;;21.20;99.90;;;;;;5058842;28;20469;-75
2021/05/10 00:08:06;;;;;;;3.17;2.10;;;21.20;99.90;;;;;;5054266;28;20037;-75
2021/05/10 00:10:32;;;;;;;5.65;2.10;;;21.30;99.90;;;;;;5059202;28;20032;-75
2021/05/10 00:12:58;;;;;;;2.85;2.20;;;21.30;99.90;;;;;;5069371;28;20393;-75
2021/05/10 00:15:23;;;;;;;4.38;1.80;;;21.20;99.90;;;;;;5056776;28;20025;-75
2021/05/10 00:17:49;;;;;;;2.33;2.00;;;21.20;99.90;;;;;;5063107;28;20020;-75
2021/05/10 00:20:15;;;;;;;3.35;2.05;;;21.20;99.90;;;;;;5061514;28;20025;-75
2021/05/10 00:22:40;;;;;;;3.25;2.00;;;21.20;99.90;;;;;;5059732;28;20540;-74
2021/05/10 00:25:06;;;;;;;5.30;2.28;;;21.10;99.90;;;;;;5036643;28;20019;-75
2021/05/10 00:27:32;;;;;;;4.97;2.10;;;21.00;99.90;;;;;;5059748;28;20113;-75
2021/05/10 00:29:57;;;;;;;5.20;1.80;;;21.00;99.90;;;;;;5057258;28;20033;-75
2021/05/10 00:32:23;;;;;;;3.22;2.03;;;21.10;99.90;;;;;;5057238;28;20044;-75
2021/05/10 00:34:50;;;;;;;5.53;1.98;;;21.10;99.90;;;;;;5054593;28;20032;-75
2021/05/10 00:37:16;;;;;;;5.45;2.08;;;21.00;99.90;;;;;;5058895;28;20020;-75
2021/05/10 00:39:42;;;;;;;5.25;2.45;;;21.10;99.90;;;;;;5055362;28;20033;-75
2021/05/10 00:42:07;;;;;;;4.05;1.80;;;21.10;99.90;;;;;;5058446;28;20016;-74
2021/05/10 00:44:34;;;;;;;3.65;1.58;;;21.00;99.90;;;;;;5055990;28;20032;-74
2021/05/10 00:47:00;;;;;;;6.15;2.17;;;21.10;99.90;;;;;;5057737;28;20099;-74
2021/05/10 00:49:26;;;;;;;6.63;1.52;;;21.10;99.90;;;;;;5056403;28;20096;-74
2021/05/10 00:51:51;;;;;;;3.67;1.98;;;21.10;99.90;;;;;;5058715;28;20031;-75
2021/05/10 00:54:17;;;;;;;4.95;1.70;;;21.20;99.90;;;;;;5052832;28;20469;-74
2021/05/10 00:56:43;;;;;;;5.65;1.90;;;21.20;99.90;;;;;;5056243;28;20029;-74
2021/05/10 00:59:08;;;;;;;6.80;1.60;;;21.20;99.90;;;;;;5061502;28;20016;-74
2021/05/10 01:01:35;;;;;;;3.17;1.77;;;21.10;99.90;;;;;;5062143;28;20431;-74
2021/05/10 01:04:00;;;;;;;4.97;1.58;;;21.10;99.90;;;;;;5058086;28;20039;-75
2021/05/10 01:06:26;;;;;;;3.30;1.90;;;21.10;99.90;;;;;;5053632;28;20020;-74
2021/05/10 01:08:51;;;;;;;3.65;1.83;;;21.10;99.90;;;;;;5059518;28;20033;-74
2021/05/10 01:11:17;;;;;;;2.85;2.03;;;21.10;99.90;;;;;;5063114;28;20028;-74
2021/05/10 01:13:44;;;;;;;2.25;1.90;;;21.10;99.90;;;;;;5062390;28;20047;-75
2021/05/10 01:16:10;;;;;;;2.10;1.88;;;21.10;99.90;;;;;;5072474;28;20096;-75
2021/05/10 01:18:36;;;;;;;2.53;2.25;;;21.00;99.90;;;;;;5064996;28;20063;-75
2021/05/10 01:21:03;;;;;;;3.05;1.75;;;21.00;99.90;;;;;;5073117;28;20041;-75
2021/05/10 01:23:29;;;;;;;3.95;1.67;;;20.90;99.90;;;;;;5058971;28;20083;-75
2021/05/10 01:25:55;;;;;;;2.17;1.98;;;20.80;99.90;;;;;;5044436;28;20042;-75
2021/05/10 01:28:21;;;;;;;7.18;1.90;;;20.80;99.90;;;;;;5062661;28;20020;-75
2021/05/10 01:30:51;;;;;;;3.28;1.88;;;20.70;99.90;;;;;;5061088;28;20028;-74
2021/05/10 01:33:19;;;;;;;4.18;1.90;;;20.70;99.90;;;;;;5057524;28;20024;-75
2021/05/10 01:35:48;;;;;;;3.13;1.73;;;20.70;99.90;;;;;;5057285;28;20082;-74
2021/05/10 01:38:15;;;;;;;1.70;1.60;;;20.70;99.90;;;;;;5056822;28;20036;-75
2021/05/10 01:40:42;;;;;;;5.85;1.70;;;20.70;99.90;;;;;;5056022;28;20020;-75
2021/05/10 01:43:08;;;;;;;4.10;1.95;;;20.60;99.90;;;;;;5061294;28;20025;-75
2021/05/10 01:45:36;;;;;;;2.92;1.90;;;20.50;99.90;;;;;;5040578;28;20024;-75
2021/05/10 01:48:06;;;;;;;5.18;1.90;;;20.50;99.90;;;;;;5058069;28;20029;-74
2021/05/10 01:50:32;;;;;;;2.25;1.60;;;20.60;99.90;;;;;;5056481;28;20029;-74
2021/05/10 01:52:58;;;;;;;3.55;2.10;;;20.60;99.90;;;;;;5054642;28;20032;-75
2021/05/10 01:55:25;;;;;;;3.15;1.77;;;20.60;99.90;;;;;;5061480;28;20381;-74
2021/05/10 01:57:54;;;;;;;4.80;1.63;;;20.40;99.90;;;;;;5059973;28;20051;-75
2021/05/10 02:00:26;;;;;;;8.50;1.80;;;20.40;99.90;;;;;;5042593;28;20381;-74
2021/05/10 02:02:52;;;;;;;3.55;1.80;;;20.40;99.90;;;;;;5053486;28;20028;-75
2021/05/10 02:05:20;;;;;;;6.05;1.75;;;20.40;99.90;;;;;;5058890;28;20052;-75
2021/05/10 02:07:51;;;;;;;4.53;1.60;;;20.40;99.90;;;;;;5060026;28;20024;-75
2021/05/10 02:10:25;;;;;;;4.47;1.40;;;20.40;99.90;;;;;;5060389;28;20045;-74
2021/05/10 02:12:52;;;;;;;5.90;1.90;;;20.50;99.90;;;;;;5045418;28;20377;-74
2021/05/10 02:15:19;;;;;;;4.03;1.35;;;20.50;99.90;;;;;;5052959;28;20021;-74
2021/05/10 02:17:44;;;;;;;4.85;1.52;;;20.50;99.90;;;;;;5055026;28;20025;-74
2021/05/10 02:20:10;;;;;;;1.75;1.50;;;20.50;99.50;;;;;;5055970;28;20101;-75
2021/05/10 02:22:36;;;;;;;3.97;1.13;;;20.50;99.90;;;;;;5041057;28;20105;-75
2021/05/10 02:25:04;;;;;;;3.20;1.60;;;20.50;99.30;;;;;;5055952;28;20025;-74
2021/05/10 02:27:30;;;;;;;5.25;1.50;;;20.60;99.60;;;;;;5073930;28;20033;-74
2021/05/10 02:29:55;;;;;;;3.60;1.23;;;20.70;99.30;;;;;;5060525;28;20028;-75
2021/05/10 02:32:21;;;;;;;2.50;1.45;;;20.80;99.10;;;;;;5058845;28;20056;-74
2021/05/10 02:34:47;;;;;;;2.33;1.40;;;20.80;99.20;;;;;;5060549;28;20031;-74
2021/05/10 02:37:12;;;;;;;3.97;1.27;;;20.80;99.20;;;;;;5066245;28;20024;-74
2021/05/10 02:39:39;;;;;;;5.03;1.20;;;20.80;98.70;;;;;;5064409;28;20054;-74
2021/05/10 02:42:05;;;;;;;2.90;1.40;;;20.90;98.50;;;;;;5066216;28;20037;-75
2021/05/10 02:44:31;;;;;;;3.72;1.27;;;20.90;98.40;;;;;;5063597;28;20416;-74
2021/05/10 02:46:57;;;;;;;3.47;1.63;;;20.90;98.90;;;;;;5066392;28;20551;-74
2021/05/10 02:49:22;;;;;;;4.25;1.45;;;20.90;98.70;;;;;;5061965;28;20017;-74
2021/05/10 02:51:48;;;;;;;2.85;1.38;;;20.90;98.40;;;;;;5057941;28;20114;-74
2021/05/10 02:54:14;;;;;;;6.63;1.45;;;20.90;99.20;;;;;;5065165;28;20477;-74
2021/05/10 02:56:39;;;;;;;3.53;1.48;;;20.90;98.20;;;;;;5061461;28;20033;-74
2021/05/10 02:59:05;;;;;;;4.70;1.45;;;20.90;99.10;;;;;;5065799;28;20489;-74
2021/05/10 03:01:30;;;;;;;4.03;1.30;;;21.00;99.90;;;;;;5072163;28;20089;-74
2021/05/10 03:03:56;;;;;;;6.30;1.23;;;20.90;98.80;;;;;;5068303;28;20039;-74
2021/05/10 03:06:22;;;;;;;3.10;1.63;;;21.00;99.60;;;;;;5059499;28;20032;-74
2021/05/10 03:08:47;;;;;;;3.45;1.30;;;21.00;99.40;;;;;;5066068;28;20104;-74
2021/05/10 03:11:13;;;;;;;1.70;1.13;;;21.00;98.60;;;;;;5077497;28;20082;-75
2021/05/10 03:13:38;;;;;;;2.72;1.17;;;20.90;99.00;;;;;;5066274;28;20029;-75
2021/05/10 03:16:04;;;;;;;4.85;1.13;;;20.90;98.60;;;;;;5065330;28;20033;-75
2021/05/10 03:18:30;;;;;;;6.75;1.80;;;20.90;99.20;;;;;;5057726;28;20120;-75
2021/05/10 03:20:56;;;;;;;2.92;1.40;;;20.90;99.10;;;;;;5063293;28;20500;-75
2021/05/10 03:23:22;;;;;;;3.45;1.75;;;21.00;99.80;;;;;;5066125;28;20478;-74
2021/05/10 03:25:47;;;;;;;3.28;1.20;;;21.00;98.90;;;;;;5066525;28;20021;-75
2021/05/10 03:28:13;;;;;;;6.25;1.42;;;21.00;98.80;;;;;;5065822;28;20065;-74
2021/05/10 03:30:39;;;;;;;6.10;1.35;;;20.90;99.30;;;;;;5069118;28;20107;-75
2021/05/10 03:33:07;;;;;;;4.93;1.45;;;20.90;98.40;;;;;;5058256;28;20024;-74
2021/05/10 03:35:32;;;;;;;4.20;1.50;;;21.00;98.80;;;;;;5066887;28;20382;-74
2021/05/10 03:37:58;;;;;;;3.80;1.33;;;21.00;98.70;;;;;;5066660;28;20030;-75
2021/05/10 03:40:23;;;;;;;2.63;1.30;;;21.00;98.40;;;;;;5066523;28;20039;-75
2021/05/10 03:42:49;;;;;;;5.18;1.40;;;20.90;98.30;;;;;;5073860;28;20024;-74
2021/05/10 03:45:16;;;;;;;4.03;1.17;;;20.90;99.10;;;;;;5054029;28;20458;-75
2021/05/10 03:47:43;;;;;;;10.80;1.48;;;20.90;98.40;;;;;;5061942;28;20108;-75
2021/05/10 03:50:14;;;;;;;5.38;1.50;;;20.90;98.90;;;;;;5047540;28;20052;-74
2021/05/10 03:52:40;;;;;;;3.70;1.52;;;20.90;98.60;;;;;;5058404;28;20025;-75
2021/05/10 03:55:08;;;;;;;2.08;1.30;;;20.90;98.60;;;;;;5060855;28;20039;-75
2021/05/10 03:57:34;;;;;;;4.47;1.60;;;20.90;98.90;;;;;;5060466;28;20017;-74
2021/05/10 04:00:00;;;;;;;4.00;1.42;;;20.90;98.80;;;;;;5066406;28;20039;-75
2021/05/10 04:02:27;;;;;;;6.20;1.70;;;20.90;98.50;;;;;;5063344;28;20054;-74
2021/05/10 04:05:12;;;;;;;4.90;1.73;;;20.90;98.80;;;;;;5065130;28;20056;-75
2021/05/10 04:07:49;;;;;;;2.78;1.42;;;20.90;98.70;;;;;;5061204;28;20086;-75
2021/05/10 04:15:35;;;;;;;2.85;1.17;;;20.80;99.70;;;;;;5066866;28;20079;-74
2021/05/10 04:18:00;;;;;;;7.47;2.00;;;20.80;99.90;;;;;;5067234;28;20033;-74
2021/05/10 04:20:27;;;;;;;5.03;2.05;;;20.70;99.90;;;;;;5054734;28;20021;-74
2021/05/10 04:22:53;;;;;;;7.22;2.08;;;20.50;99.90;;;;;;5060455;28;20028;-75
2021/05/10 04:25:18;;;;;;;7.10;2.45;;;20.40;99.90;;;;;;5055035;28;20028;-75
2021/05/10 04:27:46;;;;;;;8.32;2.30;;;20.20;99.90;;;;;;5059941;28;20707;-75
2021/05/10 04:30:12;;;;;;;7.78;3.03;;;20.10;99.90;;;;;;5063799;28;20063;-75
2021/05/10 04:32:38;;;;;;;6.20;3.15;;;20.00;99.90;;;;;;5061201;28;20401;-76
2021/05/10 04:35:04;;;;;;;3.92;2.95;;;19.80;99.90;;;;;;5067166;28;20099;-76
2021/05/10 04:37:30;;;;;;;5.35;3.15;;;19.60;99.90;;;;;;5062859;28;20025;-76
2021/05/10 04:39:56;;;;;;;6.03;3.28;;;19.40;99.90;;;;;;5064292;28;20477;-76
2021/05/10 04:42:21;;;;;;;5.80;2.75;;;19.50;99.90;;;;;;5064853;28;20388;-77
2021/05/10 04:44:47;;;;;;;4.30;2.20;;;19.40;99.90;;;;;;5056125;28;20033;-76
2021/05/10 04:47:13;;;;;;;6.03;2.88;;;19.40;99.90;;;;;;5062925;28;20112;-76
2021/05/10 04:49:38;;;;;;;3.42;3.03;;;19.40;99.90;;;;;;5060008;28;20036;-76
2021/05/10 04:52:04;;;;;;;4.25;3.35;;;19.40;99.90;;;;;;5064656;28;20558;-76
2021/05/10 04:54:30;;;;;;;7.35;3.03;;;19.50;99.90;;;;;;5059456;28;20381;-76
2021/05/10 04:56:55;;;;;;;3.03;2.65;;;19.40;99.90;;;;;;5062497;28;20032;-76
2021/05/10 04:59:21;;;;;;;5.18;2.92;;;19.10;99.90;;;;;;5059343;28;20060;-75
2021/05/10 05:01:47;;;;;;;6.32;3.30;;;19.10;99.90;;;;;;5062826;28;20552;-75
2021/05/10 05:04:13;;;;;;;3.83;3.08;;;19.10;99.90;;;;;;5064648;28;20036;-73
2021/05/10 05:06:38;;;;;;;3.55;2.55;;;19.10;99.90;;;;;;5059018;28;20032;-72
2021/05/10 05:09:04;;;;;;;6.85;2.95;;;19.20;99.90;;;;;;5062023;28;20037;-74
2021/05/10 05:11:30;;;;;;;5.10;3.17;;;19.20;99.90;;;;;;5061546;28;20123;-74
2021/05/10 05:13:55;;;;;;;7.43;2.75;;;19.20;99.90;;;;;;5058330;28;20071;-75
2021/05/10 05:16:21;;;;;;;3.30;2.60;;;19.10;99.90;;;;;;5056963;28;20078;-75
2021/05/10 05:18:46;;;;;;;2.72;2.30;;;19.20;99.90;;;;;;5061007;28;20074;-75
2021/05/10 05:21:12;;;;;;;2.35;2.15;;;19.10;99.90;;;;;;5064340;28;20028;-74
2021/05/10 05:23:38;;;;;;;3.80;1.90;;;19.00;99.90;;;;;;5053545;28;20050;-74
2021/05/10 05:26:04;;;;;;;5.78;2.05;;;18.90;99.90;;;;;;5067208;28;20029;-72
2021/05/10 05:28:31;;;;;;;3.42;1.95;;;18.80;99.90;;;;;;5060281;28;20040;-75
2021/05/10 05:31:00;;;;;;;2.38;1.60;;;18.70;99.90;;;;;;5057657;28;20047;-73
2021/05/10 05:33:26;;;;;;;3.45;1.90;;;18.70;99.90;;;;;;5042943;28;20025;-75
2021/05/10 05:35:53;;;;;;;2.13;1.70;;;18.60;99.90;;;;;;5060866;28;20025;-72
2021/05/10 05:38:19;;;;;;;3.15;1.73;;;18.70;99.90;;;;;;5075283;28;20064;-73
2021/05/10 05:40:45;;;;;;;2.03;1.50;;;18.80;99.90;;;;;;5062231;28;20174;-74
2021/05/10 05:43:12;;;;;;;3.90;1.70;;;18.80;99.90;;;;;;5062149;28;20066;-75
2021/05/10 05:45:39;;;;;;;3.92;1.60;;;18.70;99.90;;;;;;5066936;28;20059;-73
2021/05/10 05:48:07;;;;;;;2.38;1.35;;;18.70;99.90;;;;;;5066018;28;20460;-74
2021/05/10 05:50:34;;;;;;;2.38;1.42;;;18.80;99.90;;;;;;5061938;28;20131;-74
2021/05/10 05:53:00;;;;;;;2.03;1.77;;;18.70;99.90;;;;;;5064220;28;20032;-75
2021/05/10 05:55:27;;;;;;;3.22;1.63;;;18.80;99.90;;;;;;5053243;28;20098;-75
2021/05/10 05:57:53;;;;;;;3.65;2.13;;;18.90;99.90;;;;;;5060300;28;20055;-74
2021/05/10 06:00:19;;;;;;;2.97;1.85;;;18.90;99.90;;;;;;5062992;28;20477;-73
2021/05/10 06:02:45;;;;;;;4.05;2.13;;;19.00;99.90;;;;;;5056421;28;20029;-73
2021/05/10 06:05:12;;;;;;;4.07;2.00;;;19.00;99.90;;;;;;5059877;28;20492;-74
2021/05/10 06:07:46;;;;;;;3.17;1.90;;;18.80;99.90;;;;;;5062287;28;20036;-73
2021/05/10 06:10:15;;;;;;;3.80;2.30;;;18.80;99.90;;;;;;5063647;28;20892;-73
2021/05/10 06:12:44;;;;;;;5.35;1.92;;;18.90;99.90;;;;;;5067018;28;20033;-75
2021/05/10 06:15:10;;;;;;;2.00;1.80;;;18.90;99.90;;;;;;5073591;28;20073;-73
2021/05/10 06:17:37;;;;;;;2.50;2.20;;;18.90;99.90;;;;;;5064941;28;20469;-73
2021/05/10 06:20:07;;;;;;;2.95;2.13;;;18.90;99.90;;;;;;5058115;28;20486;-75
2021/05/10 06:22:36;;;;;;;4.00;2.03;;;19.00;99.90;;;;;;5073446;28;20067;-75
2021/05/10 06:25:03;;;;;;;2.38;2.08;;;18.90;99.90;;;;;;5069657;28;20068;-72
2021/05/10 06:27:28;;;;;;;3.28;1.70;;;19.00;99.90;;;;;;5067231;28;20028;-74
2021/05/10 06:29:54;;;;;;;2.55;1.77;;;19.00;99.90;;;;;;5061336;28;20037;-74
2021/05/10 06:32:20;;;;;;;1.70;1.58;;;18.90;99.90;;;;;;5065993;28;20029;-74
2021/05/10 06:34:45;;;;;;;3.50;1.48;;;18.90;99.90;;;;;;5066715;28;20025;-73
2021/05/10 06:37:18;;;;;;;1.92;1.70;;;19.00;99.90;;;;;;5049173;28;20472;-74
2021/05/10 06:39:43;;;;;;;;;;;18.90;99.90;;;;;;5061569;28;20025;-74
2021/05/10 06:42:09;;;;;;;4.25;1.67;;;19.00;99.90;;;;;;5068592;28;19911;-74
2021/05/10 06:44:35;;;;;;;1.88;1.50;;;19.00;99.90;;;;;;5070757;28;20033;-75
2021/05/10 06:47:00;;;;;;;1.40;1.30;;;19.00;99.90;;;;;;5065702;28;20495;-75
2021/05/10 06:49:26;;;;;;;3.50;1.50;;;19.00;99.90;;;;;;5063505;28;20021;-73
2021/05/10 06:51:51;;;;;;;2.60;1.58;;;19.10;99.90;;;;;;5065634;28;20039;-75
2021/05/10 06:54:17;;;;;;;1.45;1.30;;;18.90;99.90;;;;;;5056882;28;20067;-74
2021/05/10 06:56:42;;;;;;;1.70;1.50;;;19.10;99.90;;;;;;5063553;28;20020;-75
2021/05/10 06:59:08;;;;;;;1.80;1.20;;;18.90;99.90;;;;;;5066639;28;20028;-75
2021/05/10 07:01:34;;;;;;;3.50;1.20;;;18.90;99.90;;;;;;5060304;28;20025;-74
2021/05/10 07:03:59;;;;;;;3.22;1.65;;;18.90;99.90;;;;;;5056335;28;20036;-74
2021/05/10 07:06:25;;;;;;;3.33;1.52;;;18.90;99.90;;;;;;5056593;28;20029;-75
2021/05/10 07:08:51;;;;;;;2.47;1.20;;;18.90;99.90;;;;;;5061367;28;20375;-74
2021/05/10 07:11:17;;;;;;;2.58;1.40;;;18.90;99.90;;;;;;5061421;28;20051;-74
2021/05/10 07:13:43;;;;;;;4.30;1.38;;;19.00;99.90;;;;;;5058498;28;20100;-74
2021/05/10 07:16:09;;;;;;;1.48;1.35;;;19.00;99.90;;;;;;5059506;28;20124;-73
2021/05/10 07:18:34;;;;;;;2.05;1.50;;;19.00;99.90;;;;;;5060759;28;20021;-74
2021/05/10 07:21:00;;;;;;;3.92;1.30;;;19.00;99.90;;;;;;5062097;28;20106;-74
2021/05/10 07:23:26;;;;;;;5.90;2.00;;;18.90;99.90;;;;;;5062625;28;20024;-74
2021/05/10 07:25:52;;;;;;;2.85;1.60;;;19.00;99.90;;;;;;5069105;28;20115;-73
2021/05/10 07:28:19;;;;;;;2.42;1.20;;;19.00;99.90;;;;;;5061813;28;20024;-74
2021/05/10 07:30:46;;;;;;;2.53;1.30;;;19.00;99.90;;;;;;5059446;28;20075;-74
2021/05/10 07:33:12;;;;;;;1.75;1.30;;;19.00;99.90;;;;;;5065729;28;20029;-74
2021/05/10 07:35:38;;;;;;;1.92;1.52;;;18.90;99.90;;;;;;5059973;28;20587;-74
2021/05/10 07:38:04;;;;;;;3.50;1.10;;;18.90;99.90;;;;;;5058784;28;20057;-74
2021/05/10 07:40:31;;;;;;;1.60;1.23;;;19.00;99.90;;;;;;5066688;28;20109;-74
2021/05/10 07:42:57;;;;;;;2.72;1.10;;;18.90;99.90;;;;;;5066393;28;20579;-74
2021/05/10 07:45:23;;;;;;;3.00;1.45;;;18.90;99.90;;;;;;5062910;28;20025;-73
2021/05/10 07:47:51;;;;;;;3.35;1.50;;;18.90;99.90;;;;;;5062800;28;20075;-73
2021/05/10 07:50:18;;;;;;;1.73;1.25;;;18.90;99.90;;;;;;5067134;28;20024;-71
2021/05/10 07:52:43;;;;;;;2.42;1.45;;;19.00;99.90;;;;;;5060843;28;20036;-72
2021/05/10 07:55:09;;;;;;;1.63;1.52;;;19.20;99.90;;;;;;5063249;28;20028;-73
2021/05/10 07:57:35;;;;;;;3.13;1.30;;;19.10;99.90;;;;;;5051590;28;20028;-72
2021/05/10 08:00:04;;;;;;;2.05;1.27;;;19.10;99.90;;;;;;5068562;28;20039;-73
2021/05/10 08:02:32;;;;;;;1.58;1.30;;;19.20;99.90;;;;;;5065117;28;20032;-72
2021/05/10 08:05:00;;;;;;;3.00;1.40;;;19.20;99.90;;;;;;5047310;28;20032;-73
2021/05/10 08:07:26;;;;;;;3.42;1.25;;;19.00;99.90;;;;;;5064106;28;20037;-73
2021/05/10 08:09:53;;;;;;;1.95;1.17;;;18.90;99.90;;;;;;5068999;28;20020;-72
2021/05/10 08:12:18;;;;;;;1.95;1.10;;;18.90;99.90;;;;;;5073779;28;20032;-72
2021/05/10 08:14:44;;;;;;;4.10;1.40;;;19.00;99.90;;;;;;5068880;28;20016;-72
2021/05/10 08:17:10;;;;;;;3.45;1.80;;;18.90;99.90;;;;;;5059863;28;20064;-72
2021/05/10 08:19:36;;;;;;;1.50;1.15;;;18.70;99.90;;;;;;5062245;28;20033;-72
2021/05/10 08:22:04;;;;;;;1.60;0.77;;;18.80;99.90;;;;;;5063340;28;20036;-72
2021/05/10 08:24:30;;;;;;;1.70;1.38;;;18.60;99.90;;;;;;5065155;28;20020;-72
2021/05/10 08:26:57;;;;;;;2.28;1.60;;;18.50;99.90;;;;;;5066459;28;20178;-72
2021/05/10 08:29:23;;;;;;;3.15;1.30;;;18.30;99.90;;;;;;5067601;28;21182;-74
2021/05/10 08:31:49;;;;;;;1.23;1.00;;;18.20;99.90;;;;;;5053070;28;20073;-70
2021/05/10 08:34:18;;;;;;;4.15;1.25;;;18.00;99.90;;;;;;5066939;28;20411;-72
2021/05/10 08:36:45;;;;;;;2.25;1.63;;;18.10;99.90;;;;;;5074197;28;20043;-70
2021/05/10 08:39:11;;;;;;;3.97;1.70;;;18.00;99.90;;;;;;5065120;28;20037;-70
2021/05/10 08:41:39;;;;;;;2.67;1.80;;;18.10;99.90;;;;;;5042061;28;20433;-70
2021/05/10 08:44:09;;;;;;;2.63;1.58;;;18.00;99.90;;;;;;5061500;28;20056;-72
2021/05/10 08:46:36;;;;;;;2.42;1.40;;;18.10;99.90;;;;;;5059588;28;20122;-72
2021/05/10 08:49:03;;;;;;;2.55;1.60;;;18.00;99.90;;;;;;5062154;28;20227;-72
2021/05/10 08:51:30;;;;;;;3.33;1.77;;;18.10;99.90;;;;;;5064022;28;20644;-72
2021/05/10 08:53:57;;;;;;;3.42;1.80;;;18.10;99.90;;;;;;5065719;28;20032;-72
2021/05/10 08:56:23;;;;;;;4.13;1.85;;;18.10;99.90;;;;;;5069830;28;20020;-71
2021/05/10 08:58:48;;;;;;;3.38;1.60;;;17.90;99.90;;;;;;5067366;28;20078;-73
2021/05/10 09:01:15;;;;;;;4.32;1.80;;;17.80;99.90;;;;;;5063085;28;20547;-73
2021/05/10 09:03:45;;;;;;;3.63;2.25;;;17.70;99.90;;;;;;5063751;28;20074;-73
2021/05/10 09:06:31;;;;;;;2.25;2.03;;;17.50;99.90;;;;;;5065263;28;20058;-72
2021/05/10 09:09:09;;;;;;;3.13;1.55;;;17.70;99.90;;;;;;5062170;28;20036;-73
2021/05/10 09:11:51;;;;;;;6.60;2.15;;;17.70;99.90;;;;;;5061096;28;20043;-72
2021/05/10 09:14:29;;;;;;;1.80;1.70;;;17.60;99.90;;;;;;5062960;28;20044;-70
2021/05/10 09:16:55;;;;;;;2.33;1.92;;;17.70;99.90;;;;;;5066461;28;20028;-73
2021/05/10 09:19:38;;;;;;;3.05;1.80;;;17.80;99.90;;;;;;5075700;28;20024;-73
2021/05/10 09:22:04;;;;;;;4.07;2.10;;;17.70;99.90;;;;;;5065029;28;20381;-73
2021/05/10 09:24:29;;;;;;;3.38;1.98;;;17.70;99.90;;;;;;5077509;28;20020;-73
2021/05/10 09:26:55;;;;;;;2.92;1.60;;;17.70;99.90;;;;;;5057001;28;20040;-73
2021/05/10 09:29:30;;;;;;;5.63;2.00;;;17.70;99.90;;;;;;5060854;28;20028;-71
2021/05/10 09:31:55;;;;;;;6.55;1.80;;;17.60;99.90;;;;;;5066027;28;20064;-73
2021/05/10 09:34:23;;;;;;;3.47;2.03;;;17.40;99.90;;;;;;5066539;28;20388;-74
2021/05/10 09:36:49;;;;;;;2.70;2.00;;;17.40;99.90;;;;;;5053099;28;20028;-74
2021/05/10 09:39:28;;;;;;;2.13;1.80;;;17.40;99.90;;;;;;5064670;28;20037;-71
2021/05/10 09:41:58;;;;;;;5.43;2.20;;;17.40;99.90;;;;;;5060661;28;20024;-73
2021/05/10 09:44:39;;;;;;;3.28;2.03;;;17.50;99.90;;;;;;5068705;28;20052;-72
2021/05/10 09:47:05;;;;;;;3.00;1.80;;;17.50;99.90;;;;;;5062970;28;20029;-69
2021/05/10 09:49:44;;;;;;;3.58;2.00;;;17.50;99.90;;;;;;5068737;28;20411;-70
2021/05/10 09:52:25;;;;;;;5.75;4.15;;;17.40;99.90;;;;;;5066284;28;20078;-69
2021/05/10 09:54:59;;;;;;;4.50;2.38;;;17.50;99.90;;;;;;5075498;28;20020;-71
2021/05/10 09:57:25;;;;;;;4.40;1.90;;;17.40;99.90;;;;;;5064807;28;20163;-70
2021/05/10 10:00:20;;;;;;;2.88;1.90;;;17.50;99.90;;;;;;5064226;28;20062;-70
2021/05/10 10:02:46;;;;;;;2.08;1.88;;;17.60;99.90;;;;;;5059352;28;20067;-72
2021/05/10 10:05:12;;;;;;;2.63;1.70;;;17.70;99.90;;;;;;5063176;28;20076;-72
2021/05/10 10:07:39;;;;;;;4.07;2.05;;;17.80;99.90;;;;;;5065066;28;20047;-71
2021/05/10 10:10:05;;;;;;;3.85;2.03;;;18.00;99.90;;;;;;5065044;28;20174;-71
2021/05/10 10:12:32;;;;;;;6.15;1.90;;;17.90;99.90;;;;;;5066316;28;20097;-71
2021/05/10 10:14:57;;;;;;;4.72;1.50;;;17.90;99.90;;;;;;5071462;28;20021;-70
2021/05/10 10:17:24;;;;;;;3.67;1.75;;;17.70;99.90;;;;;;5058859;28;20380;-71
2021/05/10 10:19:51;;;;;;;3.50;1.75;;;17.70;99.90;;;;;;5064066;28;20029;-72
2021/05/10 10:22:20;;;;;;;4.80;1.80;;;17.60;99.90;;;;;;5072416;28;20027;-71
2021/05/10 10:24:48;;;;;;;3.28;1.67;;;17.70;99.90;;;;;;5060602;28;20028;-71
2021/05/10 10:27:15;;;;;;;2.33;1.48;;;17.50;99.90;;;;;;5063973;28;20027;-71
2021/05/10 10:29:43;;;;;;;4.65;1.95;;;17.60;99.90;;;;;;5066550;28;20017;-72
2021/05/10 10:32:10;;;;;;;6.47;2.28;;;17.70;99.90;;;;;;5076239;28;20112;-71
2021/05/10 10:34:41;;;;;;;4.20;1.70;;;17.70;99.90;;;;;;5051722;28;20025;-71
2021/05/10 10:37:07;;;;;;;4.18;1.45;;;17.70;99.90;;;;;;5049617;28;20051;-71
2021/05/10 10:39:34;;;;;;;2.30;1.38;;;17.80;99.90;;;;;;5063305;28;20090;-72
2021/05/10 10:42:06;;;;;;;3.28;2.03;;;17.90;99.90;;;;;;5068733;28;20037;-72
2021/05/10 10:44:42;;;;;;;2.35;1.55;;;17.90;99.90;;;;;;5073921;28;20023;-72
2021/05/10 10:47:12;;;;;;;5.70;2.30;;;18.00;99.90;;;;;;5068473;28;20024;-72
2021/05/10 10:49:42;;;;;;;4.35;1.73;;;18.00;99.90;;;;;;5062741;28;20079;-72
2021/05/10 10:52:23;;;;;;;3.33;1.75;;;18.30;99.90;;;;;;5070859;28;20036;-72
2021/05/10 10:55:14;;;;;;;3.47;1.85;;;18.50;99.90;;;;;;5071297;28;20114;-72
2021/05/10 10:57:40;;;;;;;6.45;1.98;;;18.50;99.90;;;;;;5054628;28;20524;-71
2021/05/10 11:00:07;;;;;;;4.30;2.08;;;18.60;99.90;;;;;;5069530;28;20033;-72
2021/05/10 11:02:52;;;;;;;3.30;1.67;;;18.60;99.90;;;;;;5060130;28;20031;-72
2021/05/10 11:05:20;;;;;;;4.15;2.30;;;18.70;99.90;;;;;;5065617;28;20032;-72
2021/05/10 11:08:09;;;;;;;6.55;3.30;;;18.90;99.90;;;;;;5068520;28;20530;-72
2021/05/10 11:10:55;;;;;;;3.58;2.15;;;19.00;99.90;;;;;;5087955;28;20435;-73
2021/05/10 11:13:28;;;;;;;4.57;2.60;;;18.90;99.90;;;;;;5066937;28;20140;-72
2021/05/10 11:15:57;;;;;;;3.15;2.00;;;19.40;99.90;;;;;;5068462;28;20028;-72
2021/05/10 11:18:52;;;;;;;3.92;2.13;;;19.90;99.90;;;;;;5070032;28;20040;-71
2021/05/10 11:21:24;;;;;;;9.60;2.42;;;19.90;99.90;;;;;;5067530;28;20021;-72
2021/05/10 11:24:01;;;;;;;3.42;1.98;;;20.10;99.90;;;;;;5059517;28;20032;-72
2021/05/10 11:26:38;;;;;;;5.30;2.40;;;20.10;99.90;;;;;;5056874;28;20016;-73
2021/05/10 11:29:29;;;;;;;3.78;2.10;;;20.10;99.90;;;;;;5059459;28;20033;-74
2021/05/10 11:32:11;;;;;;;5.40;2.75;;;20.20;99.90;;;;;;5066578;28;20037;-73
2021/05/10 11:34:38;;;;;;;4.72;2.17;;;20.60;99.90;;;;;;5055513;28;20032;-73
2021/05/10 11:37:05;;;;;;;4.05;1.75;;;20.90;99.90;;;;;;5064091;28;20420;-75
2021/05/10 11:39:36;;;;;;;10.10;4.35;;;21.20;99.90;;;;;;5069336;28;20028;-73
2021/05/10 11:42:03;;;;;;;6.85;1.67;;;21.20;99.90;;;;;;5074056;28;20029;-74
2021/05/10 11:44:34;;;;;;;4.75;1.40;;;21.40;99.90;;;;;;5067843;28;20028;-71
2021/05/10 11:47:01;;;;;;;6.53;1.80;;;21.50;99.90;;;;;;5074571;28;20101;-75
2021/05/10 11:49:37;;;;;;;8.55;5.03;;;21.40;99.90;;;;;;5062267;28;20037;-77
2021/05/10 11:52:14;;;;;;;53.72;3.20;;;21.40;99.90;;;;;;5065191;28;20123;-71
2021/05/10 11:54:42;;;;;;;3.60;1.35;;;21.50;99.90;;;;;;5063018;28;20024;-71
2021/05/10 11:57:08;;;;;;;3.90;1.40;;;21.70;99.90;;;;;;5060580;28;20450;-76
2021/05/10 11:59:44;;;;;;;11.23;2.70;;;21.80;99.90;;;;;;5056991;28;20029;-75
2021/05/10 12:02:10;;;;;;;3.00;1.33;;;22.00;99.90;;;;;;5072728;28;20028;-78
2021/05/10 12:04:37;;;;;;;2.25;1.30;;;22.00;99.90;;;;;;5063222;28;20029;-76
2021/05/10 12:07:04;;;;;;;3.63;1.77;;;21.90;99.90;;;;;;5057629;28;20052;-75
2021/05/10 12:09:37;;;;;;;8.27;1.85;;;22.00;99.90;;;;;;5082389;28;20435;-74
2021/05/10 12:12:23;;;;;;;5.20;1.77;;;22.00;99.90;;;;;;5064594;28;20033;-72
2021/05/10 12:14:53;;;;;;;11.23;1.95;;;22.20;99.90;;;;;;5074497;28;20025;-83
2021/05/10 12:17:26;;;;;;;3.60;1.30;;;22.40;99.90;;;;;;5061623;28;20032;-77
2021/05/10 12:20:01;;;;;;;4.68;1.50;;;22.40;99.90;;;;;;5065852;28;20039;-76
2021/05/10 12:22:38;;;;;;;6.82;1.60;;;22.30;99.90;;;;;;5067516;28;20134;-75
2021/05/10 12:25:10;;;;;;;2.33;1.42;;;22.10;99.90;;;;;;5042572;28;20135;-78
2021/05/10 12:27:38;;;;;;;8.73;1.65;;;22.20;99.90;;;;;;5058828;28;20477;-75
2021/05/10 12:30:10;;;;;;;21.38;5.13;;;22.30;99.90;;;;;;5062847;28;20025;-74
2021/05/10 12:32:36;;;;;;;10.30;1.85;;;22.20;98.90;;;;;;5069156;28;20032;-75
2021/05/10 12:35:03;;;;;;;3.95;1.00;;;22.20;99.90;;;;;;5064470;28;20078;-79
2021/05/10 12:37:29;;;;;;;10.18;1.63;;;22.00;99.00;;;;;;5071653;28;20036;-75
2021/05/10 12:40:05;;;;;;;15.60;1.60;;;21.80;99.30;;;;;;5067182;28;20029;-75
2021/05/10 12:42:31;;;;;;;8.05;1.60;;;21.80;99.00;;;;;;5062663;28;20086;-77
2021/05/10 12:45:06;;;;;;;6.45;1.58;;;21.80;99.10;;;;;;5060951;28;20044;-79
2021/05/10 12:47:46;;;;;;;3.45;2.00;;;21.90;99.70;;;;;;5069679;28;20032;-77
2021/05/10 12:50:31;;;;;;;17.27;6.05;;;21.80;99.50;;;;;;5060547;28;20042;-78
2021/05/10 12:52:59;;;;;;;9.77;1.70;;;22.10;99.40;;;;;;5084175;28;20020;-74
2021/05/10 12:55:25;;;;;;;13.27;1.95;;;22.20;99.50;;;;;;5074547;28;20377;-74